sensor_id;sensor_type;location;lat;lon;timestamp;temperature;humidity
44731;DHT22;30458;47.448;19.032;2023-07-02T00:04:06;24.10;98.10
44731;DHT22;30458;47.448;19.032;2023-07-02T00:14:12;24.10;98.10
44731;DHT22;30458;47.448;19.032;2023-07-02T00:24:13;24.20;97.80
44731;DHT22;30458;47.448;19.032;2023-07-02T00:34:18;24.30;97.60
44731;DHT22;30458;47.448;19.032;2023-07-02T00:44:19;24.10;97.70
44731;DHT22;30458;47.448;19.032;2023-07-02T00:54:20;24.10;97.60
44731;DHT22;30458;47.448;19.032;2023-07-02T01:04:21;23.90;97.70
44731;DHT22;30458;47.448;19.032;2023-07-02T01:14:40;23.90;97.60
44731;DHT22;30458;47.448;19.032;2023-07-02T01:24:45;23.80;97.40
44731;DHT22;30458;47.448;19.032;2023-07-02T01:34:57;23.60;97.50
44731;DHT22;30458;47.448;19.032;2023-07-02T01:45:04;23.60;97.20
44731;DHT22;30458;47.448;19.032;2023-07-02T01:55:08;23.70;97.10
44731;DHT22;30458;47.448;19.032;2023-07-02T02:05:09;23.60;97.00
44731;DHT22;30458;47.448;19.032;2023-07-02T02:15:12;23.60;96.60
44731;DHT22;30458;47.448;19.032;2023-07-02T02:25:14;23.40;95.10
44731;DHT22;30458;47.448;19.032;2023-07-02T02:35:15;23.40;95.30
44731;DHT22;30458;47.448;19.032;2023-07-02T02:45:21;23.50;95.00
44731;DHT22;30458;47.448;19.032;2023-07-02T02:55:22;23.50;93.90
44731;DHT22;30458;47.448;19.032;2023-07-02T03:05:23;23.70;93.90
44731;DHT22;30458;47.448;19.032;2023-07-02T03:15:23;23.70;93.60
44731;DHT22;30458;47.448;19.032;2023-07-02T03:25:29;23.50;93.60
44731;DHT22;30458;47.448;19.032;2023-07-02T03:35:32;23.50;93.50
44731;DHT22;30458;47.448;19.032;2023-07-02T03:45:33;23.50;93.10
44731;DHT22;30458;47.448;19.032;2023-07-02T03:55:33;23.50;93.50
44731;DHT22;30458;47.448;19.032;2023-07-02T04:05:34;23.60;93.70
44731;DHT22;30458;47.448;19.032;2023-07-02T04:15:35;23.80;93.50
44731;DHT22;30458;47.448;19.032;2023-07-02T04:25:36;24.00;93.00
44731;DHT22;30458;47.448;19.032;2023-07-02T04:35:40;24.20;93.40
44731;DHT22;30458;47.448;19.032;2023-07-02T04:45:43;24.60;93.10
44731;DHT22;30458;47.448;19.032;2023-07-02T04:55:47;24.60;93.00
44731;DHT22;30458;47.448;19.032;2023-07-02T05:05:48;24.40;93.60
44731;DHT22;30458;47.448;19.032;2023-07-02T05:15:48;24.60;93.50
44731;DHT22;30458;47.448;19.032;2023-07-02T05:25:49;25.20;92.60
44731;DHT22;30458;47.448;19.032;2023-07-02T05:35:50;25.80;92.10
44731;DHT22;30458;47.448;19.032;2023-07-02T05:45:54;26.60;91.20
44731;DHT22;30458;47.448;19.032;2023-07-02T05:55:54;26.80;91.80
44731;DHT22;30458;47.448;19.032;2023-07-02T06:05:56;27.30;90.30
44731;DHT22;30458;47.448;19.032;2023-07-02T06:16:01;27.20;90.80
44731;DHT22;30458;47.448;19.032;2023-07-02T06:26:02;27.70;90.20
44731;DHT22;30458;47.448;19.032;2023-07-02T06:36:03;27.20;90.10
44731;DHT22;30458;47.448;19.032;2023-07-02T06:46:04;26.90;90.60
44731;DHT22;30458;47.448;19.032;2023-07-02T06:56:05;28.00;89.60
44731;DHT22;30458;47.448;19.032;2023-07-02T07:06:11;27.90;88.80
44731;DHT22;30458;47.448;19.032;2023-07-02T07:16:12;28.00;86.50
44731;DHT22;30458;47.448;19.032;2023-07-02T07:26:12;27.60;85.20
44731;DHT22;30458;47.448;19.032;2023-07-02T07:36:13;28.60;87.00
44731;DHT22;30458;47.448;19.032;2023-07-02T07:46:14;29.20;86.00
44731;DHT22;30458;47.448;19.032;2023-07-02T07:56:17;29.10;83.20
44731;DHT22;30458;47.448;19.032;2023-07-02T08:06:18;29.60;82.80
44731;DHT22;30458;47.448;19.032;2023-07-02T08:16:19;29.40;82.60
44731;DHT22;30458;47.448;19.032;2023-07-02T08:26:22;29.20;82.30
44731;DHT22;30458;47.448;19.032;2023-07-02T08:36:25;29.00;82.30
44731;DHT22;30458;47.448;19.032;2023-07-02T08:46:28;28.10;88.60
44731;DHT22;30458;47.448;19.032;2023-07-02T08:56:31;27.90;89.10
44731;DHT22;30458;47.448;19.032;2023-07-02T09:06:32;28.70;88.00
44731;DHT22;30458;47.448;19.032;2023-07-02T09:16:33;28.50;86.70
44731;DHT22;30458;47.448;19.032;2023-07-02T09:26:37;28.20;86.60
44731;DHT22;30458;47.448;19.032;2023-07-02T09:36:37;28.10;85.30
44731;DHT22;30458;47.448;19.032;2023-07-02T09:46:43;28.70;87.20
44731;DHT22;30458;47.448;19.032;2023-07-02T09:56:46;28.70;85.20
44731;DHT22;30458;47.448;19.032;2023-07-02T10:06:52;28.80;84.80
44731;DHT22;30458;47.448;19.032;2023-07-02T10:16:55;28.80;84.50
44731;DHT22;30458;47.448;19.032;2023-07-02T10:26:57;28.30;83.90
44731;DHT22;30458;47.448;19.032;2023-07-02T10:37:03;28.10;86.80
44731;DHT22;30458;47.448;19.032;2023-07-02T10:47:04;28.20;85.60
44731;DHT22;30458;47.448;19.032;2023-07-02T10:57:06;28.40;86.10
44731;DHT22;30458;47.448;19.032;2023-07-02T11:07:06;28.30;85.70
44731;DHT22;30458;47.448;19.032;2023-07-02T11:17:10;28.30;85.90
44731;DHT22;30458;47.448;19.032;2023-07-02T11:27:23;28.40;86.60
44731;DHT22;30458;47.448;19.032;2023-07-02T11:37:24;28.30;84.90
44731;DHT22;30458;47.448;19.032;2023-07-02T11:47:28;28.30;83.40
44731;DHT22;30458;47.448;19.032;2023-07-02T11:57:29;28.30;85.40
44731;DHT22;30458;47.448;19.032;2023-07-02T12:07:33;28.30;85.10
44731;DHT22;30458;47.448;19.032;2023-07-02T12:17:34;28.40;83.60
44731;DHT22;30458;47.448;19.032;2023-07-02T12:27:40;28.30;83.10
44731;DHT22;30458;47.448;19.032;2023-07-02T12:37:49;28.30;83.80
44731;DHT22;30458;47.448;19.032;2023-07-02T12:47:53;28.20;84.10
44731;DHT22;30458;47.448;19.032;2023-07-02T12:57:54;28.30;84.10
44731;DHT22;30458;47.448;19.032;2023-07-02T13:07:55;28.30;84.10
44731;DHT22;30458;47.448;19.032;2023-07-02T13:17:56;28.40;85.80
44731;DHT22;30458;47.448;19.032;2023-07-02T13:27:57;28.30;84.80
44731;DHT22;30458;47.448;19.032;2023-07-02T13:37:58;28.60;83.90
44731;DHT22;30458;47.448;19.032;2023-07-02T13:47:59;28.60;82.70
44731;DHT22;30458;47.448;19.032;2023-07-02T13:58:03;28.90;83.00
44731;DHT22;30458;47.448;19.032;2023-07-02T14:08:04;29.10;81.80
44731;DHT22;30458;47.448;19.032;2023-07-02T14:18:04;29.20;80.80
44731;DHT22;30458;47.448;19.032;2023-07-02T14:28:07;28.90;82.30
44731;DHT22;30458;47.448;19.032;2023-07-02T14:38:10;29.00;82.50
44731;DHT22;30458;47.448;19.032;2023-07-02T14:48:11;28.60;81.60
44731;DHT22;30458;47.448;19.032;2023-07-02T14:58:13;28.70;82.30
44731;DHT22;30458;47.448;19.032;2023-07-02T15:08:21;28.50;83.50
44731;DHT22;30458;47.448;19.032;2023-07-02T15:18:22;28.40;83.50
44731;DHT22;30458;47.448;19.032;2023-07-02T15:28:26;28.00;83.30
44731;DHT22;30458;47.448;19.032;2023-07-02T15:38:34;27.90;83.20
44731;DHT22;30458;47.448;19.032;2023-07-02T15:48:38;28.10;80.70
44731;DHT22;30458;47.448;19.032;2023-07-02T15:58:39;28.10;82.20
44731;DHT22;30458;47.448;19.032;2023-07-02T16:08:44;28.10;80.90
44731;DHT22;30458;47.448;19.032;2023-07-02T16:18:46;28.00;82.20
44731;DHT22;30458;47.448;19.032;2023-07-02T16:28:46;27.90;83.90
44731;DHT22;30458;47.448;19.032;2023-07-02T16:38:47;27.80;85.30
44731;DHT22;30458;47.448;19.032;2023-07-02T16:48:49;27.70;84.60
44731;DHT22;30458;47.448;19.032;2023-07-02T16:58:50;27.60;82.80
44731;DHT22;30458;47.448;19.032;2023-07-02T17:09:21;27.40;81.70
44731;DHT22;30458;47.448;19.032;2023-07-02T17:19:37;27.30;82.30
44731;DHT22;30458;47.448;19.032;2023-07-02T17:29:40;27.20;81.60
44731;DHT22;30458;47.448;19.032;2023-07-02T17:39:41;27.10;82.70
44731;DHT22;30458;47.448;19.032;2023-07-02T17:49:45;26.90;83.90
44731;DHT22;30458;47.448;19.032;2023-07-02T17:59:47;26.80;85.30
44731;DHT22;30458;47.448;19.032;2023-07-02T18:09:52;26.70;86.20
44731;DHT22;30458;47.448;19.032;2023-07-02T18:19:56;26.40;84.80
44731;DHT22;30458;47.448;19.032;2023-07-02T18:29:59;26.10;84.30
44731;DHT22;30458;47.448;19.032;2023-07-02T18:40:00;25.70;84.30
44731;DHT22;30458;47.448;19.032;2023-07-02T18:50:08;25.40;84.60
44731;DHT22;30458;47.448;19.032;2023-07-02T19:00:10;25.20;85.00
44731;DHT22;30458;47.448;19.032;2023-07-02T19:10:14;24.90;85.90
44731;DHT22;30458;47.448;19.032;2023-07-02T19:20:20;24.70;86.20
44731;DHT22;30458;47.448;19.032;2023-07-02T19:30:23;24.40;86.90
44731;DHT22;30458;47.448;19.032;2023-07-02T19:40:24;24.30;87.70
44731;DHT22;30458;47.448;19.032;2023-07-02T19:50:25;24.10;88.40
44731;DHT22;30458;47.448;19.032;2023-07-02T20:00:26;24.00;88.90
44731;DHT22;30458;47.448;19.032;2023-07-02T20:10:34;24.00;89.30
44731;DHT22;30458;47.448;19.032;2023-07-02T20:20:37;23.90;89.40
44731;DHT22;30458;47.448;19.032;2023-07-02T20:30:40;23.70;89.60
44731;DHT22;30458;47.448;19.032;2023-07-02T20:40:45;23.60;89.40
44731;DHT22;30458;47.448;19.032;2023-07-02T20:51:07;23.40;89.40
44731;DHT22;30458;47.448;19.032;2023-07-02T21:01:11;23.30;89.90
44731;DHT22;30458;47.448;19.032;2023-07-02T21:11:14;23.10;90.10
44731;DHT22;30458;47.448;19.032;2023-07-02T21:21:17;23.00;90.30
44731;DHT22;30458;47.448;19.032;2023-07-02T21:31:18;22.90;90.40
44731;DHT22;30458;47.448;19.032;2023-07-02T21:41:21;22.80;90.60
44731;DHT22;30458;47.448;19.032;2023-07-02T21:51:21;22.80;90.50
44731;DHT22;30458;47.448;19.032;2023-07-02T22:01:22;22.60;90.70
44731;DHT22;30458;47.448;19.032;2023-07-02T22:11:23;22.50;90.80
44731;DHT22;30458;47.448;19.032;2023-07-02T22:21:25;22.50;90.80
44731;DHT22;30458;47.448;19.032;2023-07-02T22:31:27;22.40;90.80
44731;DHT22;30458;47.448;19.032;2023-07-02T22:41:29;22.40;90.80
44731;DHT22;30458;47.448;19.032;2023-07-02T22:51:32;22.30;90.90
44731;DHT22;30458;47.448;19.032;2023-07-02T23:01:36;22.30;90.80
44731;DHT22;30458;47.448;19.032;2023-07-02T23:11:36;22.30;90.90
44731;DHT22;30458;47.448;19.032;2023-07-02T23:21:39;22.20;91.00
44731;DHT22;30458;47.448;19.032;2023-07-02T23:31:47;22.10;91.10
44731;DHT22;30458;47.448;19.032;2023-07-02T23:41:50;22.10;91.30
44731;DHT22;30458;47.448;19.032;2023-07-02T23:51:53;22.00;91.50
